createdAt,value
2017-04-10T08:16:01.264Z,1022.6
2017-04-10T08:21:01.188Z,1022.55
2017-04-10T08:26:01.117Z,1022.61
2017-04-10T08:31:01.039Z,1022.77
2017-04-10T08:36:00.960Z,1022.77
2017-04-10T08:41:00.888Z,1022.86
2017-04-10T08:46:00.823Z,1022.88
2017-04-10T08:51:00.756Z,1023.42
2017-04-10T08:56:00.700Z,1023.23
2017-04-10T09:01:00.644Z,1023.22
2017-04-10T09:06:00.592Z,1023.67
2017-04-10T09:11:00.549Z,1023.7
2017-04-10T09:16:00.497Z,1023.44
2017-04-10T09:21:00.446Z,1023.9
2017-04-10T09:26:00.401Z,1024.05
2017-04-10T09:31:00.351Z,1023.59
2017-04-10T09:36:00.312Z,1023.6
2017-04-10T09:41:00.307Z,1023.74
2017-04-10T09:46:00.203Z,1025.05
2017-04-10T09:51:00.153Z,1023.79
2017-04-10T09:56:00.105Z,1023.82
2017-04-10T10:01:00.055Z,1024.01
2017-04-10T10:05:59.999Z,1023.79
2017-04-10T10:10:59.954Z,1024.05
2017-04-10T10:15:59.905Z,1024.18
2017-04-10T10:20:59.856Z,1024.01
2017-04-10T10:25:59.812Z,1023.92
2017-04-10T10:30:59.747Z,1023.74
2017-04-10T10:35:59.699Z,1023.88
2017-04-10T10:40:59.648Z,1023.94
2017-04-10T10:45:59.599Z,1023.99
2017-04-10T10:50:59.547Z,1024.04
2017-04-10T10:55:59.500Z,1023.87
2017-04-10T11:00:59.453Z,1023.93
2017-04-10T11:05:59.398Z,1023.98
2017-04-10T11:10:59.351Z,1023.99
2017-04-10T11:15:59.300Z,1023.97
2017-04-10T11:20:59.254Z,1024.15
2017-04-10T11:25:59.204Z,1023.99
2017-04-10T11:30:59.191Z,1024.09
2017-04-10T11:35:59.104Z,1024.13
2017-04-10T11:40:59.056Z,1024.17
2017-04-10T11:45:59.006Z,1024.14
2017-04-10T11:50:58.958Z,1024.12
2017-04-10T11:55:58.918Z,1024.19
2017-04-10T12:00:58.872Z,1024.13
2017-04-10T12:05:58.826Z,1024.21
2017-04-10T12:10:58.778Z,1024.28
2017-04-10T12:15:58.736Z,1024.25
2017-04-10T12:20:58.679Z,1024.33
2017-04-10T12:25:58.639Z,1024.43
2017-04-10T12:30:58.587Z,1024.28
2017-04-10T12:35:58.567Z,1024.32
2017-04-10T12:40:58.557Z,1024.43
2017-04-10T12:45:58.471Z,1024.47
2017-04-10T12:50:58.497Z,1024.45
2017-04-10T12:55:58.464Z,1024.57
2017-04-10T13:00:58.463Z,1024.65
2017-04-10T13:05:58.438Z,1024.68
2017-04-10T13:10:58.425Z,1024.68
2017-04-10T13:15:58.422Z,1024.76
2017-04-10T13:20:58.411Z,1024.69
2017-04-10T13:25:58.399Z,1024.77
2017-04-10T13:30:58.390Z,1024.76
2017-04-10T13:35:58.382Z,1024.8
2017-04-10T13:40:58.389Z,1024.7
2017-04-10T13:45:58.357Z,1024.74
2017-04-10T13:50:58.347Z,1024.74
2017-04-10T13:55:58.333Z,1024.64
2017-04-10T14:00:58.314Z,1024.66
2017-04-10T14:05:58.263Z,1024.58
2017-04-10T14:10:58.214Z,1024.57
2017-04-10T14:15:58.197Z,1024.59
2017-04-10T14:20:58.210Z,1024.7
2017-04-10T14:25:58.183Z,1024.74
2017-04-10T14:30:58.165Z,1024.74
2017-04-10T14:35:58.161Z,1024.77
2017-04-10T14:40:58.143Z,1024.84
2017-04-10T14:45:58.147Z,1024.67
2017-04-10T14:50:58.118Z,1024.75
2017-04-10T14:55:58.109Z,1024.88
2017-04-10T15:00:58.075Z,1024.87
2017-04-10T15:05:58.059Z,1024.97
2017-04-10T15:10:58.034Z,1025.03
2017-04-10T15:15:58.001Z,1025.04
2017-04-10T15:20:57.977Z,1024.99
2017-04-10T15:25:57.957Z,1025.04
2017-04-10T15:30:57.954Z,1025.06
2017-04-10T15:35:57.902Z,1025.12
2017-04-10T15:40:57.871Z,1025.17
2017-04-10T15:45:57.845Z,1025.15
2017-04-10T15:50:57.816Z,1025.14
2017-04-10T15:55:57.797Z,1025.08
2017-04-10T16:00:57.756Z,1025.11
2017-04-10T16:05:57.689Z,1025.18
2017-04-10T16:10:57.632Z,1025.2
2017-04-10T16:15:57.561Z,1025.17
2017-04-10T16:20:57.493Z,1025.3
2017-04-10T16:25:57.429Z,1025.35
2017-04-10T16:30:57.365Z,1025.33
2017-04-10T16:35:57.293Z,1025.41
2017-04-10T16:40:57.229Z,1025.38
2017-04-10T16:45:57.160Z,1025.4
2017-04-10T16:50:57.097Z,1025.34
2017-04-10T16:55:57.035Z,1025.37
2017-04-10T17:00:56.969Z,1025.34
2017-04-10T17:05:56.890Z,1025.43
2017-04-10T17:10:56.898Z,1025.45
2017-04-10T17:15:56.762Z,1025.48
2017-04-10T17:20:56.694Z,1025.48
2017-04-10T17:25:56.631Z,1025.59
2017-04-10T17:30:56.572Z,1025.53
2017-04-10T17:35:56.496Z,1025.54
2017-04-10T17:40:56.431Z,1025.5
2017-04-10T17:45:56.391Z,1025.53
2017-04-10T17:50:56.302Z,1025.53
2017-04-10T17:55:56.228Z,1025.46
2017-04-10T18:00:56.171Z,1025.49
2017-04-10T18:05:56.093Z,1025.52
2017-04-10T18:10:56.035Z,1025.56
2017-04-10T18:15:55.966Z,1025.61
2017-04-10T18:20:55.896Z,1025.58
2017-04-10T18:25:55.849Z,1025.59
2017-04-10T18:30:55.768Z,1025.78
2017-04-10T18:35:55.704Z,1025.81
2017-04-10T18:40:55.631Z,1025.8
2017-04-10T18:45:55.564Z,1025.89
2017-04-10T18:50:55.499Z,1025.9
2017-04-10T18:55:55.432Z,1025.93
2017-04-10T19:00:55.369Z,1026.01
2017-04-10T19:05:55.295Z,1026.07
2017-04-10T19:10:55.227Z,1026.09
2017-04-10T19:15:55.151Z,1026.11
2017-04-10T19:20:55.096Z,1026.18
2017-04-10T19:25:55.016Z,1026.22
2017-04-10T19:30:54.943Z,1026.28
2017-04-10T19:35:54.873Z,1026.36
2017-04-10T19:40:54.803Z,1026.34
2017-04-10T19:45:54.723Z,1026.25
2017-04-10T19:50:54.658Z,1026.24
2017-04-10T19:55:54.639Z,1026.26
2017-04-10T20:00:54.512Z,1026.36
2017-04-10T20:05:54.432Z,1026.32
2017-04-10T20:10:54.359Z,1026.43
2017-04-10T20:15:54.282Z,1026.41
2017-04-10T20:20:54.212Z,1026.47
2017-04-10T20:25:54.129Z,1026.49
2017-04-10T20:30:54.053Z,1026.55
2017-04-10T20:35:53.983Z,1026.48
2017-04-10T20:40:53.902Z,1026.49
2017-04-10T20:45:53.826Z,1026.51
2017-04-10T20:50:53.751Z,1026.57
2017-04-10T20:55:53.671Z,1026.63
2017-04-10T21:00:53.597Z,1026.71
2017-04-10T21:05:53.519Z,1026.71
2017-04-10T21:10:53.440Z,1026.68
2017-04-10T21:15:53.358Z,1026.68
